sensor_id;sensor_type;location;lat;lon;timestamp;pressure;altitude;pressure_sealevel;temperature;humidity
77739;BME280;66904;59.926;30.404;2023-03-01T00:03:00;101274.59;;;26.54;16.94
77739;BME280;66904;59.926;30.404;2023-03-01T00:08:01;101282.50;;;26.49;17.32
77739;BME280;66904;59.926;30.404;2023-03-01T00:13:01;101276.22;;;26.49;17.16
77739;BME280;66904;59.926;30.404;2023-03-01T00:18:02;101281.44;;;26.44;16.45
77739;BME280;66904;59.926;30.404;2023-03-01T00:23:03;101279.13;;;26.41;16.79
77739;BME280;66904;59.926;30.404;2023-03-01T00:28:03;101283.91;;;26.39;17.08
77739;BME280;66904;59.926;30.404;2023-03-01T00:33:04;101280.56;;;26.37;17.12
77739;BME280;66904;59.926;30.404;2023-03-01T00:38:04;101280.75;;;26.35;16.87
77739;BME280;66904;59.926;30.404;2023-03-01T00:43:05;101250.88;;;26.22;17.20
77739;BME280;66904;59.926;30.404;2023-03-01T00:48:06;101275.97;;;26.31;17.13
77739;BME280;66904;59.926;30.404;2023-03-01T00:53:06;101287.66;;;26.31;16.87
77739;BME280;66904;59.926;30.404;2023-03-01T00:58:07;101279.72;;;26.30;17.31
77739;BME280;66904;59.926;30.404;2023-03-01T01:03:07;101279.94;;;26.28;17.26
77739;BME280;66904;59.926;30.404;2023-03-01T01:08:08;101278.03;;;26.29;17.23
77739;BME280;66904;59.926;30.404;2023-03-01T01:13:08;101284.09;;;26.31;17.35
77739;BME280;66904;59.926;30.404;2023-03-01T01:18:09;101279.72;;;26.30;17.48
77739;BME280;66904;59.926;30.404;2023-03-01T01:23:09;101285.75;;;26.32;17.28
77739;BME280;66904;59.926;30.404;2023-03-01T01:28:10;101284.94;;;26.31;17.30
77739;BME280;66904;59.926;30.404;2023-03-01T01:33:10;101294.13;;;26.30;17.67
77739;BME280;66904;59.926;30.404;2023-03-01T01:38:33;101291.84;;;26.40;17.59
77739;BME280;66904;59.926;30.404;2023-03-01T01:43:37;101284.53;;;26.34;17.61
77739;BME280;66904;59.926;30.404;2023-03-01T01:48:49;101289.75;;;26.42;17.89
77739;BME280;66904;59.926;30.404;2023-03-01T01:54:00;101288.31;;;26.46;17.70
77739;BME280;66904;59.926;30.404;2023-03-01T01:59:01;101294.59;;;26.47;17.86
77739;BME280;66904;59.926;30.404;2023-03-01T02:04:02;101296.06;;;26.49;17.46
77739;BME280;66904;59.926;30.404;2023-03-01T02:09:08;101294.41;;;26.55;17.67
77739;BME280;66904;59.926;30.404;2023-03-01T02:14:11;101310.31;;;26.58;17.69
77739;BME280;66904;59.926;30.404;2023-03-01T02:19:58;101318.84;;;26.61;17.52
77739;BME280;66904;59.926;30.404;2023-03-01T02:25:12;101318.50;;;26.71;17.21
77739;BME280;66904;59.926;30.404;2023-03-01T02:30:20;101317.41;;;26.65;17.82
77739;BME280;66904;59.926;30.404;2023-03-01T02:35:22;101315.34;;;26.67;17.87
77739;BME280;66904;59.926;30.404;2023-03-01T02:40:23;101324.94;;;26.70;17.50
77739;BME280;66904;59.926;30.404;2023-03-01T02:45:25;101322.84;;;26.72;17.74
77739;BME280;66904;59.926;30.404;2023-03-01T02:55:29;101320.38;;;26.77;17.66
77739;BME280;66904;59.926;30.404;2023-03-01T03:00:36;101309.75;;;26.82;17.74
77739;BME280;66904;59.926;30.404;2023-03-01T03:05:43;101321.69;;;26.81;17.91
77739;BME280;66904;59.926;30.404;2023-03-01T03:10:43;101315.19;;;26.82;17.74
77739;BME280;66904;59.926;30.404;2023-03-01T03:15:43;101314.16;;;26.83;18.16
77739;BME280;66904;59.926;30.404;2023-03-01T03:20:45;101311.22;;;26.85;18.10
77739;BME280;66904;59.926;30.404;2023-03-01T03:26:00;101320.44;;;26.84;17.90
77739;BME280;66904;59.926;30.404;2023-03-01T03:31:25;101322.50;;;26.88;17.52
77739;BME280;66904;59.926;30.404;2023-03-01T03:36:28;101330.91;;;27.06;17.84
77739;BME280;66904;59.926;30.404;2023-03-01T03:41:28;101319.38;;;26.85;18.31
77739;BME280;66904;59.926;30.404;2023-03-01T03:46:29;101327.31;;;26.86;18.16
77739;BME280;66904;59.926;30.404;2023-03-01T03:51:30;101317.72;;;26.84;17.93
77739;BME280;66904;59.926;30.404;2023-03-01T03:56:30;101324.78;;;26.85;17.70
77739;BME280;66904;59.926;30.404;2023-03-01T04:01:31;101330.88;;;26.87;17.64
77739;BME280;66904;59.926;30.404;2023-03-01T04:06:32;101330.88;;;26.87;17.95
77739;BME280;66904;59.926;30.404;2023-03-01T04:11:32;101324.41;;;26.81;18.02
77739;BME280;66904;59.926;30.404;2023-03-01T04:16:34;101329.84;;;26.88;18.03
77739;BME280;66904;59.926;30.404;2023-03-01T04:21:35;101328.59;;;26.90;18.15
77739;BME280;66904;59.926;30.404;2023-03-01T04:26:36;101320.00;;;26.87;17.89
77739;BME280;66904;59.926;30.404;2023-03-01T04:31:36;101327.56;;;26.91;18.27
77739;BME280;66904;59.926;30.404;2023-03-01T04:36:37;101336.94;;;26.95;18.17
77739;BME280;66904;59.926;30.404;2023-03-01T04:41:38;101337.78;;;27.02;18.89
77739;BME280;66904;59.926;30.404;2023-03-01T04:46:39;101337.19;;;27.07;18.74
77739;BME280;66904;59.926;30.404;2023-03-01T04:51:40;101341.38;;;27.16;18.69
77739;BME280;66904;59.926;30.404;2023-03-01T04:56:40;101363.97;;;27.23;18.69
77739;BME280;66904;59.926;30.404;2023-03-01T05:01:41;101363.75;;;27.31;18.46
77739;BME280;66904;59.926;30.404;2023-03-01T05:06:43;101378.41;;;27.37;18.74
77739;BME280;66904;59.926;30.404;2023-03-01T05:11:44;101383.63;;;27.38;18.50
77739;BME280;66904;59.926;30.404;2023-03-01T05:16:45;101389.75;;;27.47;18.86
77739;BME280;66904;59.926;30.404;2023-03-01T05:21:45;101398.50;;;27.49;18.76
77739;BME280;66904;59.926;30.404;2023-03-01T05:27:04;101392.44;;;27.47;18.70
77739;BME280;66904;59.926;30.404;2023-03-01T05:32:05;101383.84;;;27.43;18.19
77739;BME280;66904;59.926;30.404;2023-03-01T05:37:05;101368.78;;;27.34;18.16
77739;BME280;66904;59.926;30.404;2023-03-01T05:42:10;101377.75;;;27.28;18.06
77739;BME280;66904;59.926;30.404;2023-03-01T05:47:11;101375.25;;;27.20;18.55
77739;BME280;66904;59.926;30.404;2023-03-01T05:52:11;101387.78;;;27.14;18.63
77739;BME280;66904;59.926;30.404;2023-03-01T05:57:12;101386.50;;;27.10;18.84
77739;BME280;66904;59.926;30.404;2023-03-01T06:02:13;101394.84;;;27.09;18.81
77739;BME280;66904;59.926;30.404;2023-03-01T06:13:12;101378.81;;;27.20;19.30
77739;BME280;66904;59.926;30.404;2023-03-01T06:18:31;101378.38;;;27.10;18.96
77739;BME280;66904;59.926;30.404;2023-03-01T06:23:32;101389.03;;;27.18;19.10
77739;BME280;66904;59.926;30.404;2023-03-01T06:28:34;101394.44;;;27.18;18.96
77739;BME280;66904;59.926;30.404;2023-03-01T06:33:34;101372.94;;;27.10;19.41
77739;BME280;66904;59.926;30.404;2023-03-01T06:38:36;101367.91;;;27.07;18.92
77739;BME280;66904;59.926;30.404;2023-03-01T06:49:31;101382.13;;;27.16;18.80
77739;BME280;66904;59.926;30.404;2023-03-01T06:54:31;101383.97;;;27.02;18.63
77739;BME280;66904;59.926;30.404;2023-03-01T06:59:32;101386.47;;;26.97;18.53
77739;BME280;66904;59.926;30.404;2023-03-01T07:04:32;101380.41;;;26.95;18.96
77739;BME280;66904;59.926;30.404;2023-03-01T07:09:33;101384.16;;;26.94;18.97
77739;BME280;66904;59.926;30.404;2023-03-01T07:14:34;101369.31;;;26.90;18.51
77739;BME280;66904;59.926;30.404;2023-03-01T07:19:34;101355.69;;;26.77;18.68
77739;BME280;66904;59.926;30.404;2023-03-01T07:24:35;101379.16;;;26.91;19.15
77739;BME280;66904;59.926;30.404;2023-03-01T07:29:35;101343.34;;;26.68;18.64
77739;BME280;66904;59.926;30.404;2023-03-01T07:34:39;101373.91;;;26.90;18.32
77739;BME280;66904;59.926;30.404;2023-03-01T07:39:40;101373.91;;;26.90;18.07
77739;BME280;66904;59.926;30.404;2023-03-01T07:44:40;101369.09;;;26.85;18.61
77739;BME280;66904;59.926;30.404;2023-03-01T07:49:41;101363.25;;;26.88;18.13
77739;BME280;66904;59.926;30.404;2023-03-01T07:54:47;101378.94;;;26.99;18.47
77739;BME280;66904;59.926;30.404;2023-03-01T08:00:11;101369.97;;;26.99;18.05
77739;BME280;66904;59.926;30.404;2023-03-01T08:05:11;101352.00;;;26.98;18.36
77739;BME280;66904;59.926;30.404;2023-03-01T08:10:12;101338.81;;;27.01;18.44
77739;BME280;66904;59.926;30.404;2023-03-01T08:15:13;101332.59;;;27.01;18.53
77739;BME280;66904;59.926;30.404;2023-03-01T08:20:13;101335.06;;;27.02;18.15
77739;BME280;66904;59.926;30.404;2023-03-01T08:25:14;101335.31;;;27.01;17.99
77739;BME280;66904;59.926;30.404;2023-03-01T08:30:14;101339.69;;;27.08;18.61
77739;BME280;66904;59.926;30.404;2023-03-01T08:35:15;101344.69;;;27.11;18.57
77739;BME280;66904;59.926;30.404;2023-03-01T08:40:16;101350.78;;;27.13;18.52
77739;BME280;66904;59.926;30.404;2023-03-01T08:45:17;101344.31;;;27.14;18.12
77739;BME280;66904;59.926;30.404;2023-03-01T08:50:18;101347.03;;;27.14;18.41
77739;BME280;66904;59.926;30.404;2023-03-01T08:55:19;101353.91;;;27.10;18.28
77739;BME280;66904;59.926;30.404;2023-03-01T09:00:20;101351.38;;;27.09;17.94
77739;BME280;66904;59.926;30.404;2023-03-01T09:05:20;101336.53;;;27.05;18.44
77739;BME280;66904;59.926;30.404;2023-03-01T09:10:21;101337.81;;;27.09;18.18
77739;BME280;66904;59.926;30.404;2023-03-01T09:15:21;101330.31;;;27.11;18.20
77739;BME280;66904;59.926;30.404;2023-03-01T09:20:22;101314.00;;;27.04;18.65
77739;BME280;66904;59.926;30.404;2023-03-01T09:25:23;101302.06;;;26.99;18.36
77739;BME280;66904;59.926;30.404;2023-03-01T09:30:23;101333.03;;;27.11;18.42
77739;BME280;66904;59.926;30.404;2023-03-01T09:35:24;101323.78;;;27.05;19.14
77739;BME280;66904;59.926;30.404;2023-03-01T09:40:26;101320.06;;;27.13;18.69
77739;BME280;66904;59.926;30.404;2023-03-01T09:45:41;101325.28;;;27.14;18.44
77739;BME280;66904;59.926;30.404;2023-03-01T09:50:45;101305.22;;;27.09;18.84
77739;BME280;66904;59.926;30.404;2023-03-01T09:56:03;101305.84;;;27.11;18.44
77739;BME280;66904;59.926;30.404;2023-03-01T10:06:35;101303.94;;;27.05;18.75
77739;BME280;66904;59.926;30.404;2023-03-01T10:11:40;101278.03;;;26.89;18.54
77739;BME280;66904;59.926;30.404;2023-03-01T10:16:52;101301.44;;;27.03;18.34
77739;BME280;66904;59.926;30.404;2023-03-01T10:21:57;101286.59;;;26.99;18.67
77739;BME280;66904;59.926;30.404;2023-03-01T10:27:07;101262.56;;;26.96;18.67
77739;BME280;66904;59.926;30.404;2023-03-01T10:32:09;101270.53;;;27.17;18.33
77739;BME280;66904;59.926;30.404;2023-03-01T10:42:25;101256.97;;;27.04;18.63
77739;BME280;66904;59.926;30.404;2023-03-01T10:47:27;101245.44;;;27.02;18.49
77739;BME280;66904;59.926;30.404;2023-03-01T10:52:34;101242.72;;;27.02;18.51
77739;BME280;66904;59.926;30.404;2023-03-01T10:57:38;101235.22;;;27.04;18.68
77739;BME280;66904;59.926;30.404;2023-03-01T11:02:39;101219.31;;;27.01;18.40
77739;BME280;66904;59.926;30.404;2023-03-01T11:07:55;101227.69;;;27.13;18.31
77739;BME280;66904;59.926;30.404;2023-03-01T11:13:08;101211.41;;;27.13;18.42
77739;BME280;66904;59.926;30.404;2023-03-01T11:18:22;101208.88;;;27.11;18.18
77739;BME280;66904;59.926;30.404;2023-03-01T11:23:23;101181.53;;;27.00;18.42
77739;BME280;66904;59.926;30.404;2023-03-01T11:28:25;101177.34;;;27.04;18.65
77739;BME280;66904;59.926;30.404;2023-03-01T11:38:38;101174.81;;;27.02;18.28
77739;BME280;66904;59.926;30.404;2023-03-01T11:43:52;101152.28;;;26.95;18.31
77739;BME280;66904;59.926;30.404;2023-03-01T12:38:42;101095.84;;;27.10;18.95
77739;BME280;66904;59.926;30.404;2023-03-01T12:49:21;101095.63;;;27.12;19.02
77739;BME280;66904;59.926;30.404;2023-03-01T12:54:29;101092.31;;;27.10;19.18
77739;BME280;66904;59.926;30.404;2023-03-01T12:59:36;101089.59;;;27.10;18.81
77739;BME280;66904;59.926;30.404;2023-03-01T13:15:01;101077.44;;;27.12;18.71
77739;BME280;66904;59.926;30.404;2023-03-01T13:20:02;101085.16;;;27.15;19.14
77739;BME280;66904;59.926;30.404;2023-03-01T13:25:17;101086.00;;;27.22;19.09
77739;BME280;66904;59.926;30.404;2023-03-01T13:35:42;101061.38;;;27.17;19.25
77739;BME280;66904;59.926;30.404;2023-03-01T13:40:56;101095.44;;;27.13;18.95
77739;BME280;66904;59.926;30.404;2023-03-01T13:45:58;101117.59;;;27.10;19.10
77739;BME280;66904;59.926;30.404;2023-03-01T13:51:02;101102.31;;;27.09;19.36
77739;BME280;66904;59.926;30.404;2023-03-01T13:56:07;101101.47;;;27.09;19.52
77739;BME280;66904;59.926;30.404;2023-03-01T14:01:35;101091.84;;;27.26;19.20
77739;BME280;66904;59.926;30.404;2023-03-01T14:06:35;101081.84;;;27.13;19.55
77739;BME280;66904;59.926;30.404;2023-03-01T14:22:28;101070.31;;;27.18;19.61
77739;BME280;66904;59.926;30.404;2023-03-01T14:27:37;101069.69;;;27.22;19.16
77739;BME280;66904;59.926;30.404;2023-03-01T14:32:39;101073.25;;;27.16;19.33
77739;BME280;66904;59.926;30.404;2023-03-01T14:37:40;101096.00;;;27.22;19.53
77739;BME280;66904;59.926;30.404;2023-03-01T14:42:40;101129.47;;;27.22;19.38
77739;BME280;66904;59.926;30.404;2023-03-01T14:47:41;101126.31;;;27.19;19.47
77739;BME280;66904;59.926;30.404;2023-03-01T14:52:46;101107.75;;;27.09;19.58
77739;BME280;66904;59.926;30.404;2023-03-01T14:57:49;101138.06;;;27.13;19.58
77739;BME280;66904;59.926;30.404;2023-03-01T15:02:51;101133.88;;;27.10;19.11
77739;BME280;66904;59.926;30.404;2023-03-01T15:07:53;101127.81;;;27.02;19.30
77739;BME280;66904;59.926;30.404;2023-03-01T15:12:54;101138.25;;;26.98;19.06
77739;BME280;66904;59.926;30.404;2023-03-01T15:18:01;101101.53;;;26.83;19.52
77739;BME280;66904;59.926;30.404;2023-03-01T15:23:03;101097.75;;;26.70;19.13
77739;BME280;66904;59.926;30.404;2023-03-01T15:28:04;101134.09;;;26.89;19.08
77739;BME280;66904;59.926;30.404;2023-03-01T15:33:27;101147.91;;;26.94;18.93
77739;BME280;66904;59.926;30.404;2023-03-01T15:43:48;101161.69;;;26.86;18.77
77739;BME280;66904;59.926;30.404;2023-03-01T15:48:53;101162.50;;;26.73;19.77
77739;BME280;66904;59.926;30.404;2023-03-01T15:53:54;101209.09;;;26.97;19.48
77739;BME280;66904;59.926;30.404;2023-03-01T15:59:00;101191.13;;;26.96;19.39
77739;BME280;66904;59.926;30.404;2023-03-01T16:04:02;101203.88;;;27.02;19.22
77739;BME280;66904;59.926;30.404;2023-03-01T16:09:02;101218.72;;;27.06;19.53
77739;BME280;66904;59.926;30.404;2023-03-01T16:14:15;101204.09;;;27.00;19.21
77739;BME280;66904;59.926;30.404;2023-03-01T16:19:18;101210.56;;;27.12;19.55
77739;BME280;66904;59.926;30.404;2023-03-01T16:24:31;101213.69;;;27.16;19.10
77739;BME280;66904;59.926;30.404;2023-03-01T16:29:37;101231.41;;;27.38;19.43
77739;BME280;66904;59.926;30.404;2023-03-01T16:34:38;101239.16;;;27.21;18.98
77739;BME280;66904;59.926;30.404;2023-03-01T16:39:38;101213.88;;;27.01;19.02
77739;BME280;66904;59.926;30.404;2023-03-01T16:44:39;101249.00;;;27.16;18.91
77739;BME280;66904;59.926;30.404;2023-03-01T16:49:40;101275.75;;;27.12;19.18
77739;BME280;66904;59.926;30.404;2023-03-01T16:54:40;101279.50;;;27.11;19.26
77739;BME280;66904;59.926;30.404;2023-03-01T16:59:41;101281.59;;;27.09;19.71
77739;BME280;66904;59.926;30.404;2023-03-01T17:05:00;101299.59;;;27.23;19.56
77739;BME280;66904;59.926;30.404;2023-03-01T17:10:04;101297.06;;;27.15;19.74
77739;BME280;66904;59.926;30.404;2023-03-01T17:15:05;101291.00;;;27.07;19.23
77739;BME280;66904;59.926;30.404;2023-03-01T17:20:07;101278.25;;;26.94;19.51
77739;BME280;66904;59.926;30.404;2023-03-01T17:25:10;101303.13;;;27.04;19.00
77739;BME280;66904;59.926;30.404;2023-03-01T17:30:12;101315.44;;;27.00;19.22
77739;BME280;66904;59.926;30.404;2023-03-01T17:35:13;101309.16;;;26.93;19.19
77739;BME280;66904;59.926;30.404;2023-03-01T17:40:14;101317.31;;;26.93;19.22
77739;BME280;66904;59.926;30.404;2023-03-01T17:45:16;101318.56;;;26.91;19.05
77739;BME280;66904;59.926;30.404;2023-03-01T17:50:17;101301.63;;;26.82;18.75
77739;BME280;66904;59.926;30.404;2023-03-01T17:55:17;101321.28;;;26.91;18.63
77739;BME280;66904;59.926;30.404;2023-03-01T18:00:18;101322.13;;;26.91;18.99
77739;BME280;66904;59.926;30.404;2023-03-01T18:05:19;101321.47;;;26.89;19.01
77739;BME280;66904;59.926;30.404;2023-03-01T18:10:20;101293.84;;;26.72;18.96
77739;BME280;66904;59.926;30.404;2023-03-01T18:15:20;101332.34;;;26.89;18.67
77739;BME280;66904;59.926;30.404;2023-03-01T18:20:21;101347.59;;;26.90;18.51
77739;BME280;66904;59.926;30.404;2023-03-01T18:25:21;101354.06;;;26.89;18.75
77739;BME280;66904;59.926;30.404;2023-03-01T18:30:22;101368.91;;;26.93;19.13
77739;BME280;66904;59.926;30.404;2023-03-01T18:35:23;101373.94;;;26.96;19.77
77739;BME280;66904;59.926;30.404;2023-03-01T18:40:23;101377.69;;;27.02;19.52
77739;BME280;66904;59.926;30.404;2023-03-01T18:45:24;101387.72;;;27.08;19.56
77739;BME280;66904;59.926;30.404;2023-03-01T18:50:24;101353.91;;;27.04;19.58
77739;BME280;66904;59.926;30.404;2023-03-01T18:55:25;101376.91;;;27.14;19.67
77739;BME280;66904;59.926;30.404;2023-03-01T19:00:25;101361.84;;;27.18;19.53
77739;BME280;66904;59.926;30.404;2023-03-01T19:05:27;101346.59;;;27.11;19.32
77739;BME280;66904;59.926;30.404;2023-03-01T19:10:27;101371.06;;;27.24;19.53
77739;BME280;66904;59.926;30.404;2023-03-01T19:15:28;101371.91;;;27.31;19.76
77739;BME280;66904;59.926;30.404;2023-03-01T19:20:28;101400.34;;;27.42;19.71
77739;BME280;66904;59.926;30.404;2023-03-01T19:25:29;101433.63;;;27.44;19.45
77739;BME280;66904;59.926;30.404;2023-03-01T19:30:29;101401.78;;;26.64;19.00
77739;BME280;66904;59.926;30.404;2023-03-01T19:35:33;101431.06;;;26.13;18.37
77739;BME280;66904;59.926;30.404;2023-03-01T19:40:35;101427.31;;;25.58;18.88
77739;BME280;66904;59.926;30.404;2023-03-01T19:45:35;101431.50;;;25.61;19.22
77739;BME280;66904;59.926;30.404;2023-03-01T19:50:36;101420.09;;;25.93;18.95
77739;BME280;66904;59.926;30.404;2023-03-01T19:55:37;101407.19;;;26.23;19.27
77739;BME280;66904;59.926;30.404;2023-03-01T20:00:39;101427.13;;;26.43;18.33
77739;BME280;66904;59.926;30.404;2023-03-01T20:05:40;101412.09;;;26.41;18.84
77739;BME280;66904;59.926;30.404;2023-03-01T20:10:42;101428.44;;;26.54;18.34
77739;BME280;66904;59.926;30.404;2023-03-01T20:15:42;101444.34;;;26.57;18.79
77739;BME280;66904;59.926;30.404;2023-03-01T20:20:47;101442.06;;;26.60;18.54
77739;BME280;66904;59.926;30.404;2023-03-01T20:25:48;101444.13;;;26.58;18.21
77739;BME280;66904;59.926;30.404;2023-03-01T20:30:49;101450.81;;;26.62;18.63
77739;BME280;66904;59.926;30.404;2023-03-01T20:35:49;101455.03;;;26.71;19.26
77739;BME280;66904;59.926;30.404;2023-03-01T20:40:49;101464.13;;;26.85;19.33
77739;BME280;66904;59.926;30.404;2023-03-01T20:45:50;101462.53;;;26.97;19.46
77739;BME280;66904;59.926;30.404;2023-03-01T20:50:50;101461.50;;;27.11;19.43
77739;BME280;66904;59.926;30.404;2023-03-01T20:55:51;101471.38;;;27.19;19.03
77739;BME280;66904;59.926;30.404;2023-03-01T21:00:52;101461.78;;;27.23;19.07
77739;BME280;66904;59.926;30.404;2023-03-01T21:05:56;101455.50;;;27.22;19.39
77739;BME280;66904;59.926;30.404;2023-03-01T21:10:56;101451.94;;;27.29;18.96
77739;BME280;66904;59.926;30.404;2023-03-01T21:16:05;101452.59;;;27.31;18.69
77739;BME280;66904;59.926;30.404;2023-03-01T21:21:12;101437.94;;;27.32;19.09
77739;BME280;66904;59.926;30.404;2023-03-01T21:26:23;101428.34;;;27.36;19.08
77739;BME280;66904;59.926;30.404;2023-03-01T21:31:28;101438.59;;;27.34;19.75
77739;BME280;66904;59.926;30.404;2023-03-01T21:36:31;101445.06;;;27.33;19.45
77739;BME280;66904;59.926;30.404;2023-03-01T21:41:42;101437.13;;;27.38;20.14
77739;BME280;66904;59.926;30.404;2023-03-01T21:52:33;101449.31;;;27.48;19.72
77739;BME280;66904;59.926;30.404;2023-03-01T21:57:34;101435.09;;;27.53;20.17
77739;BME280;66904;59.926;30.404;2023-03-01T22:02:57;101454.75;;;27.61;20.12
77739;BME280;66904;59.926;30.404;2023-03-01T22:08:01;101458.13;;;27.57;19.60
77739;BME280;66904;59.926;30.404;2023-03-01T22:13:30;101444.31;;;27.65;19.99
77739;BME280;66904;59.926;30.404;2023-03-01T22:19:19;101436.38;;;27.63;19.45
77739;BME280;66904;59.926;30.404;2023-03-01T22:35:32;101441.59;;;27.52;19.61
77739;BME280;66904;59.926;30.404;2023-03-01T22:40:32;101429.06;;;27.51;19.41
77739;BME280;66904;59.926;30.404;2023-03-01T22:45:33;101428.41;;;27.49;19.96
77739;BME280;66904;59.926;30.404;2023-03-01T22:56:26;101414.63;;;27.44;19.51
77739;BME280;66904;59.926;30.404;2023-03-01T23:01:28;101432.78;;;27.43;19.72
77739;BME280;66904;59.926;30.404;2023-03-01T23:06:30;101413.94;;;27.42;19.75
77739;BME280;66904;59.926;30.404;2023-03-01T23:11:42;101404.94;;;27.41;19.79
77739;BME280;66904;59.926;30.404;2023-03-01T23:17:05;101411.22;;;27.42;19.63
77739;BME280;66904;59.926;30.404;2023-03-01T23:22:09;101382.75;;;27.31;19.10
77739;BME280;66904;59.926;30.404;2023-03-01T23:27:22;101404.16;;;27.47;19.24
77739;BME280;66904;59.926;30.404;2023-03-01T23:32:29;101414.34;;;27.39;19.77
77739;BME280;66904;59.926;30.404;2023-03-01T23:37:30;101422.31;;;27.40;19.30
77739;BME280;66904;59.926;30.404;2023-03-01T23:42:32;101442.19;;;27.41;19.00
77739;BME280;66904;59.926;30.404;2023-03-01T23:47:57;101438.25;;;27.50;19.41
77739;BME280;66904;59.926;30.404;2023-03-01T23:53:01;101437.13;;;27.38;19.64
77739;BME280;66904;59.926;30.404;2023-03-01T23:58:02;101415.81;;;27.41;19.41
